sensor_id;sensor_type;location;lat;lon;timestamp;P1;durP1;ratioP1;P2;durP2;ratioP2
23187;SDS011;11762;59.878;17.686;2023-04-01T00:01:18;3.13;;;1.20;;
23187;SDS011;11762;59.878;17.686;2023-04-01T00:03:45;3.03;;;1.57;;
23187;SDS011;11762;59.878;17.686;2023-04-01T00:06:15;2.77;;;1.30;;
23187;SDS011;11762;59.878;17.686;2023-04-01T00:08:44;2.40;;;1.40;;
23187;SDS011;11762;59.878;17.686;2023-04-01T00:11:11;2.93;;;1.23;;
23187;SDS011;11762;59.878;17.686;2023-04-01T00:13:38;6.63;;;1.73;;
23187;SDS011;11762;59.878;17.686;2023-04-01T00:16:06;2.40;;;1.30;;
23187;SDS011;11762;59.878;17.686;2023-04-01T00:18:33;3.37;;;1.23;;
23187;SDS011;11762;59.878;17.686;2023-04-01T00:21:00;3.90;;;1.23;;
23187;SDS011;11762;59.878;17.686;2023-04-01T00:23:29;5.10;;;1.57;;
23187;SDS011;11762;59.878;17.686;2023-04-01T00:25:56;4.57;;;1.47;;
23187;SDS011;11762;59.878;17.686;2023-04-01T00:28:26;3.73;;;1.33;;
23187;SDS011;11762;59.878;17.686;2023-04-01T00:30:53;6.57;;;1.97;;
23187;SDS011;11762;59.878;17.686;2023-04-01T00:33:20;5.63;;;1.60;;
23187;SDS011;11762;59.878;17.686;2023-04-01T00:35:47;5.83;;;1.60;;
23187;SDS011;11762;59.878;17.686;2023-04-01T00:38:14;8.47;;;1.70;;
23187;SDS011;11762;59.878;17.686;2023-04-01T00:40:44;2.73;;;1.07;;
23187;SDS011;11762;59.878;17.686;2023-04-01T00:43:12;3.50;;;1.20;;
23187;SDS011;11762;59.878;17.686;2023-04-01T00:45:43;2.43;;;1.10;;
23187;SDS011;11762;59.878;17.686;2023-04-01T00:48:12;2.30;;;1.10;;
23187;SDS011;11762;59.878;17.686;2023-04-01T00:50:44;5.43;;;1.20;;
23187;SDS011;11762;59.878;17.686;2023-04-01T00:53:16;2.93;;;1.30;;
23187;SDS011;11762;59.878;17.686;2023-04-01T00:55:47;2.60;;;1.20;;
23187;SDS011;11762;59.878;17.686;2023-04-01T00:58:18;2.13;;;1.03;;
23187;SDS011;11762;59.878;17.686;2023-04-01T01:00:47;3.37;;;1.43;;
23187;SDS011;11762;59.878;17.686;2023-04-01T01:03:16;5.67;;;1.50;;
23187;SDS011;11762;59.878;17.686;2023-04-01T01:05:52;3.03;;;1.00;;
23187;SDS011;11762;59.878;17.686;2023-04-01T01:08:47;1.93;;;1.10;;
23187;SDS011;11762;59.878;17.686;2023-04-01T01:11:35;5.40;;;1.23;;
23187;SDS011;11762;59.878;17.686;2023-04-01T01:14:06;6.17;;;1.03;;
23187;SDS011;11762;59.878;17.686;2023-04-01T01:16:40;6.67;;;1.30;;
23187;SDS011;11762;59.878;17.686;2023-04-01T01:19:11;4.07;;;1.37;;
23187;SDS011;11762;59.878;17.686;2023-04-01T01:21:57;3.23;;;1.20;;
23187;SDS011;11762;59.878;17.686;2023-04-01T01:24:49;7.07;;;1.20;;
23187;SDS011;11762;59.878;17.686;2023-04-01T01:27:30;5.30;;;1.37;;
23187;SDS011;11762;59.878;17.686;2023-04-01T01:35:46;2.70;;;1.23;;
23187;SDS011;11762;59.878;17.686;2023-04-01T01:38:16;3.77;;;1.30;;
23187;SDS011;11762;59.878;17.686;2023-04-01T01:40:47;6.90;;;1.67;;
23187;SDS011;11762;59.878;17.686;2023-04-01T01:43:19;2.57;;;1.33;;
23187;SDS011;11762;59.878;17.686;2023-04-01T01:45:50;4.87;;;1.40;;
23187;SDS011;11762;59.878;17.686;2023-04-01T01:48:20;3.87;;;1.10;;
23187;SDS011;11762;59.878;17.686;2023-04-01T01:50:49;9.03;;;1.80;;
23187;SDS011;11762;59.878;17.686;2023-04-01T01:53:17;7.07;;;1.50;;
23187;SDS011;11762;59.878;17.686;2023-04-01T01:55:44;7.20;;;1.40;;
23187;SDS011;11762;59.878;17.686;2023-04-01T01:58:13;2.30;;;1.23;;
23187;SDS011;11762;59.878;17.686;2023-04-01T02:00:44;3.87;;;1.27;;
23187;SDS011;11762;59.878;17.686;2023-04-01T02:03:14;2.97;;;1.20;;
23187;SDS011;11762;59.878;17.686;2023-04-01T02:05:43;3.50;;;1.37;;
23187;SDS011;11762;59.878;17.686;2023-04-01T02:08:13;2.93;;;1.03;;
23187;SDS011;11762;59.878;17.686;2023-04-01T02:10:43;2.27;;;1.07;;
23187;SDS011;11762;59.878;17.686;2023-04-01T02:13:16;10.97;;;1.60;;
23187;SDS011;11762;59.878;17.686;2023-04-01T02:15:49;5.03;;;1.60;;
23187;SDS011;11762;59.878;17.686;2023-04-01T02:18:20;2.80;;;1.30;;
23187;SDS011;11762;59.878;17.686;2023-04-01T02:20:48;8.30;;;1.10;;
23187;SDS011;11762;59.878;17.686;2023-04-01T02:23:18;3.27;;;1.17;;
23187;SDS011;11762;59.878;17.686;2023-04-01T02:25:46;6.80;;;1.67;;
23187;SDS011;11762;59.878;17.686;2023-04-01T02:28:13;2.67;;;1.33;;
23187;SDS011;11762;59.878;17.686;2023-04-01T02:30:45;3.43;;;1.50;;
23187;SDS011;11762;59.878;17.686;2023-04-01T02:33:13;4.77;;;1.67;;
23187;SDS011;11762;59.878;17.686;2023-04-01T02:35:40;6.50;;;1.60;;
23187;SDS011;11762;59.878;17.686;2023-04-01T02:38:07;4.57;;;1.43;;
23187;SDS011;11762;59.878;17.686;2023-04-01T02:40:42;4.03;;;1.40;;
23187;SDS011;11762;59.878;17.686;2023-04-01T02:43:12;3.07;;;1.20;;
23187;SDS011;11762;59.878;17.686;2023-04-01T02:45:39;3.87;;;1.20;;
23187;SDS011;11762;59.878;17.686;2023-04-01T02:48:06;3.93;;;1.73;;
23187;SDS011;11762;59.878;17.686;2023-04-01T02:50:33;5.47;;;1.53;;
23187;SDS011;11762;59.878;17.686;2023-04-01T02:53:01;3.40;;;1.10;;
23187;SDS011;11762;59.878;17.686;2023-04-01T02:55:31;3.43;;;1.50;;
23187;SDS011;11762;59.878;17.686;2023-04-01T02:58:00;9.70;;;1.47;;
23187;SDS011;11762;59.878;17.686;2023-04-01T03:00:27;3.53;;;1.50;;
23187;SDS011;11762;59.878;17.686;2023-04-01T03:02:55;3.53;;;1.57;;
23187;SDS011;11762;59.878;17.686;2023-04-01T03:05:22;4.47;;;1.63;;
23187;SDS011;11762;59.878;17.686;2023-04-01T03:07:49;5.53;;;1.40;;
23187;SDS011;11762;59.878;17.686;2023-04-01T03:10:16;2.90;;;1.30;;
23187;SDS011;11762;59.878;17.686;2023-04-01T03:12:43;3.00;;;1.43;;
23187;SDS011;11762;59.878;17.686;2023-04-01T03:15:12;3.00;;;1.23;;
23187;SDS011;11762;59.878;17.686;2023-04-01T03:17:40;6.73;;;1.70;;
23187;SDS011;11762;59.878;17.686;2023-04-01T03:20:08;3.83;;;1.20;;
23187;SDS011;11762;59.878;17.686;2023-04-01T03:22:37;4.67;;;1.63;;
23187;SDS011;11762;59.878;17.686;2023-04-01T03:25:05;6.07;;;1.50;;
23187;SDS011;11762;59.878;17.686;2023-04-01T03:27:33;3.10;;;1.27;;
23187;SDS011;11762;59.878;17.686;2023-04-01T03:30:01;8.77;;;1.70;;
23187;SDS011;11762;59.878;17.686;2023-04-01T03:32:29;5.67;;;2.00;;
23187;SDS011;11762;59.878;17.686;2023-04-01T03:34:56;5.27;;;1.80;;
23187;SDS011;11762;59.878;17.686;2023-04-01T03:37:24;4.80;;;2.10;;
23187;SDS011;11762;59.878;17.686;2023-04-01T03:39:51;6.87;;;1.57;;
23187;SDS011;11762;59.878;17.686;2023-04-01T03:42:18;5.70;;;1.83;;
23187;SDS011;11762;59.878;17.686;2023-04-01T03:44:45;12.67;;;1.97;;
23187;SDS011;11762;59.878;17.686;2023-04-01T03:47:12;5.07;;;2.00;;
23187;SDS011;11762;59.878;17.686;2023-04-01T03:49:40;5.73;;;2.23;;
23187;SDS011;11762;59.878;17.686;2023-04-01T03:52:08;4.03;;;1.80;;
23187;SDS011;11762;59.878;17.686;2023-04-01T03:54:36;2.73;;;1.47;;
23187;SDS011;11762;59.878;17.686;2023-04-01T03:57:03;6.90;;;1.73;;
23187;SDS011;11762;59.878;17.686;2023-04-01T03:59:31;11.17;;;2.43;;
23187;SDS011;11762;59.878;17.686;2023-04-01T04:01:58;3.80;;;1.70;;
23187;SDS011;11762;59.878;17.686;2023-04-01T04:04:25;9.77;;;2.17;;
23187;SDS011;11762;59.878;17.686;2023-04-01T04:06:54;4.17;;;2.10;;
23187;SDS011;11762;59.878;17.686;2023-04-01T04:09:21;6.50;;;2.10;;
23187;SDS011;11762;59.878;17.686;2023-04-01T04:11:48;6.17;;;2.00;;
23187;SDS011;11762;59.878;17.686;2023-04-01T04:14:16;7.10;;;1.63;;
23187;SDS011;11762;59.878;17.686;2023-04-01T04:16:43;5.63;;;1.83;;
23187;SDS011;11762;59.878;17.686;2023-04-01T04:19:10;6.80;;;1.87;;
23187;SDS011;11762;59.878;17.686;2023-04-01T04:21:38;6.57;;;1.63;;
23187;SDS011;11762;59.878;17.686;2023-04-01T04:24:07;11.63;;;1.87;;
23187;SDS011;11762;59.878;17.686;2023-04-01T04:26:35;5.87;;;1.90;;
23187;SDS011;11762;59.878;17.686;2023-04-01T04:29:02;7.27;;;1.60;;
23187;SDS011;11762;59.878;17.686;2023-04-01T04:31:29;5.87;;;1.80;;
23187;SDS011;11762;59.878;17.686;2023-04-01T04:33:58;5.57;;;1.53;;
23187;SDS011;11762;59.878;17.686;2023-04-01T04:36:25;8.70;;;2.10;;
23187;SDS011;11762;59.878;17.686;2023-04-01T04:38:52;4.33;;;2.10;;
23187;SDS011;11762;59.878;17.686;2023-04-01T04:41:20;4.60;;;2.07;;
23187;SDS011;11762;59.878;17.686;2023-04-01T04:43:48;5.43;;;1.70;;
23187;SDS011;11762;59.878;17.686;2023-04-01T04:46:16;5.37;;;2.43;;
23187;SDS011;11762;59.878;17.686;2023-04-01T04:48:43;4.60;;;2.23;;
23187;SDS011;11762;59.878;17.686;2023-04-01T04:51:12;12.13;;;2.00;;
23187;SDS011;11762;59.878;17.686;2023-04-01T04:53:41;4.67;;;1.87;;
23187;SDS011;11762;59.878;17.686;2023-04-01T04:56:08;5.87;;;1.90;;
23187;SDS011;11762;59.878;17.686;2023-04-01T04:58:36;5.13;;;1.73;;
23187;SDS011;11762;59.878;17.686;2023-04-01T05:01:07;9.37;;;2.03;;
23187;SDS011;11762;59.878;17.686;2023-04-01T05:03:36;7.70;;;1.60;;
23187;SDS011;11762;59.878;17.686;2023-04-01T05:06:03;5.50;;;1.67;;
23187;SDS011;11762;59.878;17.686;2023-04-01T05:08:32;5.80;;;2.00;;
23187;SDS011;11762;59.878;17.686;2023-04-01T05:10:59;4.87;;;1.57;;
23187;SDS011;11762;59.878;17.686;2023-04-01T05:13:26;11.77;;;2.40;;
23187;SDS011;11762;59.878;17.686;2023-04-01T05:15:55;5.37;;;1.93;;
23187;SDS011;11762;59.878;17.686;2023-04-01T05:18:22;6.40;;;1.80;;
23187;SDS011;11762;59.878;17.686;2023-04-01T05:20:49;7.53;;;1.97;;
23187;SDS011;11762;59.878;17.686;2023-04-01T05:23:18;8.47;;;1.47;;
23187;SDS011;11762;59.878;17.686;2023-04-01T05:25:46;4.67;;;1.50;;
23187;SDS011;11762;59.878;17.686;2023-04-01T05:28:14;4.30;;;1.60;;
23187;SDS011;11762;59.878;17.686;2023-04-01T05:30:41;5.17;;;1.60;;
23187;SDS011;11762;59.878;17.686;2023-04-01T05:33:11;4.10;;;1.73;;
23187;SDS011;11762;59.878;17.686;2023-04-01T05:35:39;3.83;;;1.60;;
23187;SDS011;11762;59.878;17.686;2023-04-01T05:38:06;4.90;;;1.40;;
23187;SDS011;11762;59.878;17.686;2023-04-01T05:40:34;4.70;;;1.93;;
23187;SDS011;11762;59.878;17.686;2023-04-01T05:43:01;4.53;;;1.63;;
23187;SDS011;11762;59.878;17.686;2023-04-01T05:45:28;3.70;;;1.40;;
23187;SDS011;11762;59.878;17.686;2023-04-01T05:47:55;4.03;;;1.60;;
23187;SDS011;11762;59.878;17.686;2023-04-01T05:50:24;3.40;;;1.40;;
23187;SDS011;11762;59.878;17.686;2023-04-01T05:52:51;3.97;;;1.60;;
23187;SDS011;11762;59.878;17.686;2023-04-01T05:55:18;7.87;;;1.30;;
23187;SDS011;11762;59.878;17.686;2023-04-01T05:57:46;7.17;;;1.90;;
23187;SDS011;11762;59.878;17.686;2023-04-01T06:00:15;3.93;;;1.67;;
23187;SDS011;11762;59.878;17.686;2023-04-01T06:02:44;4.70;;;1.73;;
23187;SDS011;11762;59.878;17.686;2023-04-01T06:05:13;3.30;;;1.60;;
23187;SDS011;11762;59.878;17.686;2023-04-01T06:07:44;7.70;;;1.70;;
23187;SDS011;11762;59.878;17.686;2023-04-01T06:10:12;6.30;;;1.80;;
23187;SDS011;11762;59.878;17.686;2023-04-01T06:12:44;6.27;;;1.53;;
23187;SDS011;11762;59.878;17.686;2023-04-01T06:15:24;5.30;;;1.67;;
23187;SDS011;11762;59.878;17.686;2023-04-01T06:18:02;4.17;;;1.60;;
23187;SDS011;11762;59.878;17.686;2023-04-01T06:21:06;4.73;;;1.53;;
23187;SDS011;11762;59.878;17.686;2023-04-01T06:23:48;7.17;;;1.47;;
23187;SDS011;11762;59.878;17.686;2023-04-01T06:26:26;8.80;;;1.33;;
23187;SDS011;11762;59.878;17.686;2023-04-01T06:32:27;4.67;;;1.67;;
23187;SDS011;11762;59.878;17.686;2023-04-01T06:38:20;5.80;;;1.67;;
23187;SDS011;11762;59.878;17.686;2023-04-01T06:41:16;2.63;;;1.00;;
23187;SDS011;11762;59.878;17.686;2023-04-01T06:43:57;10.10;;;2.23;;
23187;SDS011;11762;59.878;17.686;2023-04-01T06:46:34;6.57;;;1.40;;
23187;SDS011;11762;59.878;17.686;2023-04-01T06:52:11;3.17;;;1.37;;
23187;SDS011;11762;59.878;17.686;2023-04-01T06:54:47;5.77;;;3.20;;
23187;SDS011;11762;59.878;17.686;2023-04-01T06:57:22;4.03;;;1.13;;
23187;SDS011;11762;59.878;17.686;2023-04-01T06:59:55;7.60;;;1.60;;
23187;SDS011;11762;59.878;17.686;2023-04-01T07:02:29;4.87;;;1.30;;
23187;SDS011;11762;59.878;17.686;2023-04-01T07:05:04;3.00;;;1.23;;
23187;SDS011;11762;59.878;17.686;2023-04-01T07:07:33;3.50;;;1.17;;
23187;SDS011;11762;59.878;17.686;2023-04-01T07:10:05;2.60;;;1.30;;
23187;SDS011;11762;59.878;17.686;2023-04-01T07:12:40;2.87;;;1.30;;
23187;SDS011;11762;59.878;17.686;2023-04-01T07:15:14;4.33;;;1.20;;
23187;SDS011;11762;59.878;17.686;2023-04-01T07:17:45;8.53;;;1.57;;
23187;SDS011;11762;59.878;17.686;2023-04-01T07:20:19;2.97;;;1.20;;
23187;SDS011;11762;59.878;17.686;2023-04-01T07:22:49;4.10;;;1.37;;
23187;SDS011;11762;59.878;17.686;2023-04-01T07:25:20;5.27;;;1.30;;
23187;SDS011;11762;59.878;17.686;2023-04-01T07:27:53;4.97;;;1.40;;
23187;SDS011;11762;59.878;17.686;2023-04-01T07:30:24;5.37;;;1.13;;
23187;SDS011;11762;59.878;17.686;2023-04-01T07:32:58;3.43;;;1.30;;
23187;SDS011;11762;59.878;17.686;2023-04-01T07:35:29;3.70;;;1.13;;
23187;SDS011;11762;59.878;17.686;2023-04-01T07:38:09;7.90;;;1.40;;
23187;SDS011;11762;59.878;17.686;2023-04-01T07:40:47;5.23;;;1.13;;
23187;SDS011;11762;59.878;17.686;2023-04-01T07:46:11;6.73;;;1.47;;
23187;SDS011;11762;59.878;17.686;2023-04-01T07:48:51;12.63;;;1.40;;
23187;SDS011;11762;59.878;17.686;2023-04-01T07:51:26;12.07;;;1.63;;
23187;SDS011;11762;59.878;17.686;2023-04-01T07:54:01;3.10;;;1.33;;
23187;SDS011;11762;59.878;17.686;2023-04-01T07:56:36;4.53;;;1.10;;
23187;SDS011;11762;59.878;17.686;2023-04-01T07:59:12;5.10;;;1.33;;
23187;SDS011;11762;59.878;17.686;2023-04-01T08:01:49;6.67;;;1.40;;
23187;SDS011;11762;59.878;17.686;2023-04-01T08:04:26;16.23;;;1.47;;
23187;SDS011;11762;59.878;17.686;2023-04-01T08:07:04;8.60;;;1.53;;
23187;SDS011;11762;59.878;17.686;2023-04-01T08:09:36;3.73;;;1.30;;
23187;SDS011;11762;59.878;17.686;2023-04-01T08:12:13;6.40;;;1.13;;
23187;SDS011;11762;59.878;17.686;2023-04-01T08:14:55;5.83;;;1.03;;
23187;SDS011;11762;59.878;17.686;2023-04-01T08:17:31;3.57;;;1.10;;
23187;SDS011;11762;59.878;17.686;2023-04-01T08:20:15;2.03;;;0.67;;
23187;SDS011;11762;59.878;17.686;2023-04-01T08:22:53;14.73;;;1.70;;
23187;SDS011;11762;59.878;17.686;2023-04-01T08:25:27;2.47;;;1.00;;
23187;SDS011;11762;59.878;17.686;2023-04-01T08:27:56;6.37;;;1.30;;
23187;SDS011;11762;59.878;17.686;2023-04-01T08:30:33;9.97;;;1.03;;
23187;SDS011;11762;59.878;17.686;2023-04-01T08:33:08;7.67;;;1.40;;
23187;SDS011;11762;59.878;17.686;2023-04-01T08:35:40;4.97;;;0.80;;
23187;SDS011;11762;59.878;17.686;2023-04-01T08:38:14;5.30;;;0.87;;
23187;SDS011;11762;59.878;17.686;2023-04-01T08:43:46;1.70;;;0.90;;
23187;SDS011;11762;59.878;17.686;2023-04-01T08:46:46;6.43;;;1.00;;
23187;SDS011;11762;59.878;17.686;2023-04-01T08:49:48;5.23;;;0.90;;
23187;SDS011;11762;59.878;17.686;2023-04-01T08:52:40;2.70;;;0.87;;
23187;SDS011;11762;59.878;17.686;2023-04-01T08:55:17;6.33;;;1.30;;
23187;SDS011;11762;59.878;17.686;2023-04-01T08:57:58;2.73;;;0.60;;
23187;SDS011;11762;59.878;17.686;2023-04-01T09:00:46;2.50;;;0.60;;
23187;SDS011;11762;59.878;17.686;2023-04-01T09:09:09;5.97;;;1.00;;
23187;SDS011;11762;59.878;17.686;2023-04-01T09:15:06;12.23;;;1.50;;
23187;SDS011;11762;59.878;17.686;2023-04-01T09:18:09;11.87;;;1.00;;
23187;SDS011;11762;59.878;17.686;2023-04-01T09:20:47;3.83;;;0.60;;
23187;SDS011;11762;59.878;17.686;2023-04-01T09:23:48;13.93;;;1.10;;
23187;SDS011;11762;59.878;17.686;2023-04-01T09:26:38;0.60;;;0.33;;
23187;SDS011;11762;59.878;17.686;2023-04-01T09:29:23;6.97;;;0.83;;
23187;SDS011;11762;59.878;17.686;2023-04-01T09:32:08;2.07;;;0.60;;
23187;SDS011;11762;59.878;17.686;2023-04-01T09:34:53;15.37;;;0.87;;
23187;SDS011;11762;59.878;17.686;2023-04-01T09:37:25;2.50;;;0.53;;
23187;SDS011;11762;59.878;17.686;2023-04-01T09:40:14;4.77;;;0.70;;
23187;SDS011;11762;59.878;17.686;2023-04-01T09:42:45;18.17;;;1.00;;
23187;SDS011;11762;59.878;17.686;2023-04-01T09:45:26;5.90;;;0.90;;
23187;SDS011;11762;59.878;17.686;2023-04-01T09:48:07;4.53;;;0.80;;
23187;SDS011;11762;59.878;17.686;2023-04-01T09:50:47;4.17;;;0.70;;
23187;SDS011;11762;59.878;17.686;2023-04-01T09:53:32;6.87;;;1.10;;
23187;SDS011;11762;59.878;17.686;2023-04-01T09:56:25;7.07;;;1.83;;
23187;SDS011;11762;59.878;17.686;2023-04-01T10:02:46;4.00;;;0.50;;
23187;SDS011;11762;59.878;17.686;2023-04-01T10:05:54;1.03;;;0.20;;
23187;SDS011;11762;59.878;17.686;2023-04-01T10:15:03;3.73;;;0.87;;
23187;SDS011;11762;59.878;17.686;2023-04-01T10:18:00;5.17;;;0.40;;
23187;SDS011;11762;59.878;17.686;2023-04-01T10:35:53;8.33;;;0.87;;
23187;SDS011;11762;59.878;17.686;2023-04-01T10:41:53;2.57;;;0.30;;
23187;SDS011;11762;59.878;17.686;2023-04-01T10:53:41;0.90;;;0.33;;
23187;SDS011;11762;59.878;17.686;2023-04-01T10:56:34;4.60;;;0.50;;
23187;SDS011;11762;59.878;17.686;2023-04-01T10:59:15;3.23;;;0.40;;
23187;SDS011;11762;59.878;17.686;2023-04-01T11:02:32;2.17;;;0.30;;
23187;SDS011;11762;59.878;17.686;2023-04-01T11:12:01;3.83;;;0.80;;
23187;SDS011;11762;59.878;17.686;2023-04-01T11:18:24;0.77;;;0.20;;
23187;SDS011;11762;59.878;17.686;2023-04-01T11:24:30;1.63;;;0.30;;
23187;SDS011;11762;59.878;17.686;2023-04-01T11:27:10;9.13;;;1.57;;
23187;SDS011;11762;59.878;17.686;2023-04-01T11:29:54;5.40;;;0.30;;
23187;SDS011;11762;59.878;17.686;2023-04-01T11:32:50;1.63;;;0.27;;
23187;SDS011;11762;59.878;17.686;2023-04-01T11:38:20;2.63;;;0.17;;
23187;SDS011;11762;59.878;17.686;2023-04-01T11:41:01;0.57;;;0.20;;
23187;SDS011;11762;59.878;17.686;2023-04-01T11:43:34;4.03;;;0.40;;
23187;SDS011;11762;59.878;17.686;2023-04-01T11:46:08;7.13;;;0.77;;
23187;SDS011;11762;59.878;17.686;2023-04-01T11:48:40;3.30;;;0.30;;
23187;SDS011;11762;59.878;17.686;2023-04-01T11:51:38;2.10;;;0.40;;
23187;SDS011;11762;59.878;17.686;2023-04-01T11:54:28;1.20;;;0.50;;
23187;SDS011;11762;59.878;17.686;2023-04-01T11:57:12;12.20;;;0.80;;
23187;SDS011;11762;59.878;17.686;2023-04-01T11:59:56;3.40;;;0.40;;
23187;SDS011;11762;59.878;17.686;2023-04-01T12:02:42;1.97;;;0.50;;
23187;SDS011;11762;59.878;17.686;2023-04-01T12:05:22;3.37;;;0.40;;
23187;SDS011;11762;59.878;17.686;2023-04-01T12:08:01;4.40;;;0.30;;
23187;SDS011;11762;59.878;17.686;2023-04-01T12:10:40;1.20;;;0.40;;
23187;SDS011;11762;59.878;17.686;2023-04-01T12:13:16;3.80;;;0.87;;
23187;SDS011;11762;59.878;17.686;2023-04-01T12:18:41;1.67;;;0.60;;
23187;SDS011;11762;59.878;17.686;2023-04-01T12:21:16;1.00;;;0.37;;
23187;SDS011;11762;59.878;17.686;2023-04-01T12:24:03;4.10;;;0.60;;
23187;SDS011;11762;59.878;17.686;2023-04-01T12:26:56;1.77;;;0.40;;
23187;SDS011;11762;59.878;17.686;2023-04-01T12:29:47;1.73;;;0.30;;
23187;SDS011;11762;59.878;17.686;2023-04-01T12:32:25;2.57;;;0.20;;
23187;SDS011;11762;59.878;17.686;2023-04-01T12:37:54;2.80;;;0.37;;
23187;SDS011;11762;59.878;17.686;2023-04-01T12:40:39;3.23;;;0.67;;
23187;SDS011;11762;59.878;17.686;2023-04-01T12:43:28;4.33;;;0.90;;
23187;SDS011;11762;59.878;17.686;2023-04-01T12:46:18;1.10;;;0.40;;
23187;SDS011;11762;59.878;17.686;2023-04-01T12:49:07;6.77;;;0.90;;
23187;SDS011;11762;59.878;17.686;2023-04-01T12:52:04;2.83;;;0.57;;
23187;SDS011;11762;59.878;17.686;2023-04-01T12:54:42;2.43;;;0.50;;
23187;SDS011;11762;59.878;17.686;2023-04-01T12:57:33;9.07;;;1.00;;
23187;SDS011;11762;59.878;17.686;2023-04-01T13:00:39;7.17;;;0.60;;
23187;SDS011;11762;59.878;17.686;2023-04-01T13:03:27;1.57;;;0.60;;
23187;SDS011;11762;59.878;17.686;2023-04-01T13:06:14;3.40;;;0.30;;
23187;SDS011;11762;59.878;17.686;2023-04-01T13:08:52;3.70;;;0.50;;
23187;SDS011;11762;59.878;17.686;2023-04-01T13:11:32;4.83;;;0.60;;
23187;SDS011;11762;59.878;17.686;2023-04-01T13:14:20;3.63;;;0.30;;
23187;SDS011;11762;59.878;17.686;2023-04-01T13:16:57;1.40;;;0.20;;
23187;SDS011;11762;59.878;17.686;2023-04-01T13:19:36;0.63;;;0.20;;
23187;SDS011;11762;59.878;17.686;2023-04-01T13:22:11;1.40;;;0.67;;
23187;SDS011;11762;59.878;17.686;2023-04-01T13:24:49;3.43;;;0.30;;
23187;SDS011;11762;59.878;17.686;2023-04-01T13:30:18;1.47;;;0.40;;
23187;SDS011;11762;59.878;17.686;2023-04-01T13:32:55;2.33;;;0.37;;
23187;SDS011;11762;59.878;17.686;2023-04-01T13:35:33;2.40;;;0.30;;
23187;SDS011;11762;59.878;17.686;2023-04-01T13:38:18;1.00;;;0.60;;
23187;SDS011;11762;59.878;17.686;2023-04-01T13:41:14;5.10;;;0.47;;
23187;SDS011;11762;59.878;17.686;2023-04-01T13:43:52;1.33;;;0.60;;
23187;SDS011;11762;59.878;17.686;2023-04-01T13:46:40;40.07;;;1.87;;
23187;SDS011;11762;59.878;17.686;2023-04-01T13:52:36;2.03;;;0.40;;
23187;SDS011;11762;59.878;17.686;2023-04-01T13:55:32;2.90;;;0.63;;
23187;SDS011;11762;59.878;17.686;2023-04-01T13:58:16;6.10;;;0.73;;
23187;SDS011;11762;59.878;17.686;2023-04-01T14:00:56;3.37;;;0.30;;
23187;SDS011;11762;59.878;17.686;2023-04-01T14:06:27;2.67;;;0.43;;
23187;SDS011;11762;59.878;17.686;2023-04-01T14:09:08;3.87;;;0.50;;
23187;SDS011;11762;59.878;17.686;2023-04-01T14:11:48;3.30;;;0.37;;
23187;SDS011;11762;59.878;17.686;2023-04-01T14:14:26;4.03;;;0.90;;
23187;SDS011;11762;59.878;17.686;2023-04-01T14:17:03;1.83;;;0.27;;
23187;SDS011;11762;59.878;17.686;2023-04-01T14:19:51;5.67;;;0.50;;
23187;SDS011;11762;59.878;17.686;2023-04-01T14:22:35;3.67;;;0.53;;
23187;SDS011;11762;59.878;17.686;2023-04-01T14:25:23;3.37;;;0.80;;
23187;SDS011;11762;59.878;17.686;2023-04-01T14:28:12;2.40;;;0.33;;
23187;SDS011;11762;59.878;17.686;2023-04-01T14:30:57;6.57;;;1.00;;
23187;SDS011;11762;59.878;17.686;2023-04-01T14:33:42;1.57;;;0.43;;
23187;SDS011;11762;59.878;17.686;2023-04-01T14:36:25;2.87;;;0.80;;
23187;SDS011;11762;59.878;17.686;2023-04-01T14:39:08;4.90;;;0.57;;
23187;SDS011;11762;59.878;17.686;2023-04-01T14:41:57;4.87;;;0.70;;
23187;SDS011;11762;59.878;17.686;2023-04-01T14:44:49;2.43;;;0.40;;
23187;SDS011;11762;59.878;17.686;2023-04-01T14:47:46;2.53;;;0.30;;
23187;SDS011;11762;59.878;17.686;2023-04-01T14:50:17;3.03;;;0.37;;
23187;SDS011;11762;59.878;17.686;2023-04-01T14:52:54;1.73;;;0.60;;
23187;SDS011;11762;59.878;17.686;2023-04-01T14:55:29;4.60;;;0.70;;
23187;SDS011;11762;59.878;17.686;2023-04-01T14:58:04;2.13;;;0.50;;
23187;SDS011;11762;59.878;17.686;2023-04-01T15:00:41;3.37;;;0.80;;
23187;SDS011;11762;59.878;17.686;2023-04-01T15:03:22;2.33;;;0.80;;
23187;SDS011;11762;59.878;17.686;2023-04-01T15:05:55;4.20;;;0.53;;
23187;SDS011;11762;59.878;17.686;2023-04-01T15:08:42;6.50;;;0.60;;
23187;SDS011;11762;59.878;17.686;2023-04-01T15:11:23;1.63;;;0.57;;
23187;SDS011;11762;59.878;17.686;2023-04-01T15:16:55;2.17;;;0.57;;
23187;SDS011;11762;59.878;17.686;2023-04-01T15:19:38;3.47;;;0.60;;
23187;SDS011;11762;59.878;17.686;2023-04-01T15:22:19;3.07;;;0.60;;
23187;SDS011;11762;59.878;17.686;2023-04-01T15:25:21;2.93;;;0.40;;
23187;SDS011;11762;59.878;17.686;2023-04-01T15:28:04;2.80;;;0.70;;
23187;SDS011;11762;59.878;17.686;2023-04-01T15:30:38;5.40;;;0.73;;
23187;SDS011;11762;59.878;17.686;2023-04-01T15:33:28;1.63;;;0.50;;
23187;SDS011;11762;59.878;17.686;2023-04-01T15:36:15;8.67;;;0.43;;
23187;SDS011;11762;59.878;17.686;2023-04-01T15:38:56;1.87;;;0.43;;
23187;SDS011;11762;59.878;17.686;2023-04-01T15:41:36;8.60;;;1.00;;
23187;SDS011;11762;59.878;17.686;2023-04-01T15:44:32;7.23;;;0.47;;
23187;SDS011;11762;59.878;17.686;2023-04-01T15:47:10;2.73;;;0.37;;
23187;SDS011;11762;59.878;17.686;2023-04-01T15:50:01;2.57;;;0.67;;
23187;SDS011;11762;59.878;17.686;2023-04-01T15:52:56;1.63;;;0.50;;
23187;SDS011;11762;59.878;17.686;2023-04-01T15:55:33;5.07;;;0.40;;
23187;SDS011;11762;59.878;17.686;2023-04-01T15:58:11;2.87;;;0.37;;
23187;SDS011;11762;59.878;17.686;2023-04-01T16:00:56;5.20;;;0.70;;
23187;SDS011;11762;59.878;17.686;2023-04-01T16:03:37;4.70;;;0.57;;
23187;SDS011;11762;59.878;17.686;2023-04-01T16:06:22;4.17;;;0.60;;
23187;SDS011;11762;59.878;17.686;2023-04-01T16:09:17;2.23;;;0.53;;
23187;SDS011;11762;59.878;17.686;2023-04-01T16:12:12;1.50;;;0.70;;
23187;SDS011;11762;59.878;17.686;2023-04-01T16:14:45;3.13;;;0.40;;
23187;SDS011;11762;59.878;17.686;2023-04-01T16:17:29;1.30;;;0.57;;
23187;SDS011;11762;59.878;17.686;2023-04-01T16:20:14;3.17;;;0.63;;
23187;SDS011;11762;59.878;17.686;2023-04-01T16:22:49;2.57;;;0.63;;
23187;SDS011;11762;59.878;17.686;2023-04-01T16:25:26;7.07;;;0.87;;
23187;SDS011;11762;59.878;17.686;2023-04-01T16:28:03;3.73;;;0.80;;
23187;SDS011;11762;59.878;17.686;2023-04-01T16:30:42;12.53;;;1.53;;
23187;SDS011;11762;59.878;17.686;2023-04-01T16:33:15;3.33;;;0.83;;
23187;SDS011;11762;59.878;17.686;2023-04-01T16:35:54;3.80;;;0.77;;
23187;SDS011;11762;59.878;17.686;2023-04-01T16:38:25;7.37;;;0.90;;
23187;SDS011;11762;59.878;17.686;2023-04-01T16:41:03;5.27;;;0.73;;
23187;SDS011;11762;59.878;17.686;2023-04-01T16:43:38;7.40;;;0.87;;
23187;SDS011;11762;59.878;17.686;2023-04-01T16:49:15;7.40;;;0.93;;
23187;SDS011;11762;59.878;17.686;2023-04-01T16:51:53;5.80;;;1.33;;
23187;SDS011;11762;59.878;17.686;2023-04-01T16:54:30;4.73;;;0.90;;
23187;SDS011;11762;59.878;17.686;2023-04-01T16:57:12;17.30;;;2.07;;
23187;SDS011;11762;59.878;17.686;2023-04-01T16:59:45;3.37;;;0.80;;
23187;SDS011;11762;59.878;17.686;2023-04-01T17:02:20;7.37;;;0.97;;
23187;SDS011;11762;59.878;17.686;2023-04-01T17:04:53;7.20;;;0.90;;
23187;SDS011;11762;59.878;17.686;2023-04-01T17:07:28;6.40;;;1.27;;
23187;SDS011;11762;59.878;17.686;2023-04-01T17:10:10;8.10;;;1.03;;
23187;SDS011;11762;59.878;17.686;2023-04-01T17:16:02;2.83;;;0.80;;